Imlaystown, New Jersey
Current Conditions -  °F | °C
As of 8:58 PM on Saturday 25 Oct 2014 (Local Time) from KWRI Reporting Station
Scattered Clouds Scattered Clouds  
Wind Chill: 58°   Ceiling: Unl
Heat Index: 58°   Visibility: 10mi
Dew Point: 46°   Wind: 9mph
Humidity: 64%   Direction: 230°SW
Pressure: 29.65"   Gusts: NA
Location:  40.17°N, 74.51°W
Report Text: KWRI 260058Z AUTO 23008KT 10SM SCT070 14/08 A2965 RMK AO2 SLP044 T01430075 $
Loading
Personal Weather Stations






























Interactive Weather Map
Tropical Storm Tracking
New forecast layout! Learn more

10-Day Weather Forecast

Advertisements
Track Severe Weather on mobile